Valgardena — ICKG — position and weather

sailwx.info

Track history (hours):
 
Tides and Currents Weather Stations Pressure Air Temp Water Temp Dewpoint Dewpoint Depression Visibility Wind Speed Wind Dir Waves Ship Positions

Valgardena

Last reported at 2015-Jul-03 07:32 UTC. Time now 2015-Jul-04 05:07 UTC.
Position N 43°45' E 036°33'.

Length 184 m; draft 7.5 m.

Type: Ship. MMSI: 247243800.

Date/timePositionNaut miles runAvg speedWind from/ knotsBaromVisibWave heightAir tempDewpointWater temp
2015-Jul-03 07:32N 43°45' E 036°33'37210.5
2015-Jul-01 20:09N 41°02' E 029°00'5 8.8
2015-Jul-01 19:33N 40°57' E 028°59'7 7.3
2015-Jul-01 18:33N 40°49' E 028°59'5 2.3
2015-Jul-01 16:29N 40°45' E 028°55'1 1.1
2015-Jul-01 15:23N 40°46' E 028°56'1 1.0
2015-Jul-01 14:05N 40°47' E 028°57'1 0.8
2015-Jul-01 12:11N 40°48' E 028°58'0 0.2
2015-Jul-01 11:23N 40°49' E 028°58'1 0.3
2015-Jul-01 07:11N 40°49' E 028°60'1 0.8
2015-Jul-01 06:20N 40°50' E 029°00'0 0.3
2015-Jul-01 05:31N 40°50' E 029°00'1 0.9
2015-Jul-01 04:33N 40°49' E 028°60'3 2.3
2015-Jul-01 03:20N 40°49' E 028°56'1 0.5
2015-Jul-01 01:26N 40°48' E 028°57'3 3.5
2015-Jul-01 00:32N 40°47' E 029°01'1313.4
2015-Jun-30 23:33N 40°45' E 029°18'1211.8
2015-Jun-30 22:33N 40°45' E 029°34'  
2015-Jun-28 00:33N 40°44' E 029°24'10 9.9
2015-Jun-27 23:33N 40°44' E 029°12'1312.5
2015-Jun-27 22:33N 40°43' E 028°55'1312.4
2015-Jun-27 21:32N 40°44' E 028°38'  
2015-Jun-25 12:33N 36°45' E 023°31'38112.7
2015-Jun-24 06:33N 36°28' E 015°37'1313.2
2015-Jun-24 05:32N 36°29' E 015°21'1312.8
2015-Jun-24 04:33N 36°28' E 015°05'1313.3
2015-Jun-24 03:33N 36°29' E 014°48'1313.3
2015-Jun-24 02:33N 36°29' E 014°32'1312.7
2015-Jun-24 01:33N 36°35' E 014°18'1312.9
2015-Jun-24 00:33N 36°41' E 014°04'1313.1
2015-Jun-23 23:33N 36°47' E 013°50'1313.0
2015-Jun-23 22:33N 36°54' E 013°36'1312.7
2015-Jun-23 21:33N 37°01' E 013°22'1312.6
2015-Jun-23 20:33N 37°08' E 013°09'1212.4
2015-Jun-23 19:33N 37°14' E 012°55'612.4
2015-Jun-23 19:06N 37°16' E 012°49'  
Track history (hours):
 
Tides and Currents Weather Stations Pressure Air Temp Water Temp Dewpoint Dewpoint Depression Visibility Wind Speed Wind Dir Waves Ship Positions

Valgardena

Last reported at 2015-Jul-03 07:32 UTC. Time now 2015-Jul-04 05:07 UTC.
Position N 43°45' E 036°33'.

Length 184 m; draft 7.5 m.

Type: Ship. MMSI: 247243800.

Date/timePositionNaut miles runAvg speedWind from/ knotsBaromVisibWave heightAir tempDewpointWater temp
2015-Jul-03 07:32N 43°45' E 036°33'37210.5
2015-Jul-01 20:09N 41°02' E 029°00'5 8.8
2015-Jul-01 19:33N 40°57' E 028°59'7 7.3
2015-Jul-01 18:33N 40°49' E 028°59'5 2.3
2015-Jul-01 16:29N 40°45' E 028°55'1 1.1
2015-Jul-01 15:23N 40°46' E 028°56'1 1.0
2015-Jul-01 14:05N 40°47' E 028°57'1 0.8
2015-Jul-01 12:11N 40°48' E 028°58'0 0.2
2015-Jul-01 11:23N 40°49' E 028°58'1 0.3
2015-Jul-01 07:11N 40°49' E 028°60'1 0.8
2015-Jul-01 06:20N 40°50' E 029°00'0 0.3
2015-Jul-01 05:31N 40°50' E 029°00'1 0.9
2015-Jul-01 04:33N 40°49' E 028°60'3 2.3
2015-Jul-01 03:20N 40°49' E 028°56'1 0.5
2015-Jul-01 01:26N 40°48' E 028°57'3 3.5
2015-Jul-01 00:32N 40°47' E 029°01'1313.4
2015-Jun-30 23:33N 40°45' E 029°18'1211.8
2015-Jun-30 22:33N 40°45' E 029°34'  
2015-Jun-28 00:33N 40°44' E 029°24'10 9.9
2015-Jun-27 23:33N 40°44' E 029°12'1312.5
2015-Jun-27 22:33N 40°43' E 028°55'1312.4
2015-Jun-27 21:32N 40°44' E 028°38'  
2015-Jun-25 12:33N 36°45' E 023°31'38112.7
2015-Jun-24 06:33N 36°28' E 015°37'1313.2
2015-Jun-24 05:32N 36°29' E 015°21'1312.8
2015-Jun-24 04:33N 36°28' E 015°05'1313.3
2015-Jun-24 03:33N 36°29' E 014°48'1313.3
2015-Jun-24 02:33N 36°29' E 014°32'1312.7
2015-Jun-24 01:33N 36°35' E 014°18'1312.9
2015-Jun-24 00:33N 36°41' E 014°04'1313.1
2015-Jun-23 23:33N 36°47' E 013°50'1313.0
2015-Jun-23 22:33N 36°54' E 013°36'1312.7
2015-Jun-23 21:33N 37°01' E 013°22'1312.6
2015-Jun-23 20:33N 37°08' E 013°09'1212.4
2015-Jun-23 19:33N 37°14' E 012°55'612.4
2015-Jun-23 19:06N 37°16' E 012°49'  

Dump ship's entire track history